Time;durP1;ratioP1;P1;durP2;ratioP2;P2;SDS_P1;SDS_P2;PMS_P1;PMS_P2;Temp;Humidity;BMP_temperature;BMP_pressure;BME280_temperature;BME280_humidity;BME280_pressure;Samples;Min_cycle;Max_cycle;Signal;HPM_P1;HPM_P2
2023/06/21 00:00:18;;;;;;;19.83;18.30;;;19.60;99.90;;;;;;5050400;28;20444;-69
2023/06/21 00:02:48;;;;;;;20.17;18.07;;;19.60;99.90;;;;;;5049023;28;20476;-70
2023/06/21 00:05:17;;;;;;;20.37;18.23;;;19.60;99.90;;;;;;5050432;28;20447;-70
2023/06/21 00:07:47;;;;;;;21.80;18.50;;;19.60;99.90;;;;;;5050502;28;20475;-69
2023/06/21 00:10:15;;;;;;;21.53;18.27;;;19.60;99.90;;;;;;5050093;28;21339;-70
2023/06/21 00:12:43;;;;;;;20.40;18.30;;;19.60;99.90;;;;;;5049025;28;20914;-70
2023/06/21 00:15:11;;;;;;;18.50;17.00;;;19.60;99.90;;;;;;5050428;28;20529;-70
2023/06/21 00:17:40;;;;;;;18.83;17.00;;;19.50;99.90;;;;;;5050512;28;20539;-70
2023/06/21 00:20:11;;;;;;;20.83;18.57;;;19.50;99.90;;;;;;5050282;28;20448;-70
2023/06/21 00:22:40;;;;;;;19.00;17.07;;;19.50;99.90;;;;;;5048679;28;21170;-70
2023/06/21 00:25:09;;;;;;;18.87;16.87;;;19.50;99.90;;;;;;5049963;28;20876;-70
2023/06/21 00:27:37;;;;;;;20.87;18.80;;;19.50;99.90;;;;;;5049532;28;20436;-70
2023/06/21 00:30:06;;;;;;;21.80;19.90;;;19.40;99.90;;;;;;5050126;28;20819;-70
2023/06/21 00:32:34;;;;;;;22.07;20.00;;;19.30;99.90;;;;;;5048460;28;20464;-70
2023/06/21 00:35:02;;;;;;;22.70;20.40;;;19.30;99.90;;;;;;5049672;28;20436;-70
2023/06/21 00:37:32;;;;;;;22.20;20.13;;;19.20;99.90;;;;;;5049875;28;20510;-70
2023/06/21 00:40:00;;;;;;;23.30;21.23;;;19.20;99.90;;;;;;5049609;28;20440;-70
2023/06/21 00:42:28;;;;;;;21.00;18.97;;;19.20;99.90;;;;;;5048975;28;20492;-70
2023/06/21 00:44:56;;;;;;;23.13;20.83;;;19.10;99.90;;;;;;5049800;28;20517;-70
2023/06/21 00:47:24;;;;;;;23.57;19.97;;;19.10;99.90;;;;;;5049865;28;21208;-71
2023/06/21 00:49:52;;;;;;;21.57;19.67;;;19.00;99.90;;;;;;5050271;28;20950;-70
2023/06/21 00:52:21;;;;;;;23.47;19.73;;;19.00;99.90;;;;;;5049156;28;20472;-70
2023/06/21 00:54:50;;;;;;;21.50;19.70;;;19.00;99.90;;;;;;5049317;28;20456;-71
2023/06/21 00:57:19;;;;;;;21.00;19.10;;;19.00;99.90;;;;;;5049692;28;20822;-70
2023/06/21 00:59:47;;;;;;;21.40;19.43;;;19.00;99.90;;;;;;5049908;28;20447;-70
2023/06/21 01:02:15;;;;;;;24.60;22.07;;;18.90;99.90;;;;;;5048955;28;20965;-70
2023/06/21 01:04:43;;;;;;;23.13;20.73;;;18.90;99.90;;;;;;5049104;28;20443;-71
2023/06/21 01:07:18;;;;;;;24.00;19.87;;;18.90;99.90;;;;;;5049692;28;20534;-71
2023/06/21 01:10:02;;;;;;;22.70;18.80;;;18.90;99.90;;;;;;5049587;28;20505;-70
2023/06/21 01:12:43;;;;;;;21.87;19.77;;;18.90;99.90;;;;;;5048396;28;20558;-70
2023/06/21 01:15:17;;;;;;;22.90;20.60;;;18.80;99.90;;;;;;5049121;28;20458;-70
2023/06/21 01:17:50;;;;;;;23.43;20.70;;;18.80;99.90;;;;;;5049252;28;20528;-70
2023/06/21 01:20:24;;;;;;;22.90;20.37;;;18.80;99.90;;;;;;5049173;28;20997;-70
2023/06/21 01:23:09;;;;;;;21.67;19.70;;;18.70;99.90;;;;;;5048081;28;20911;-70
2023/06/21 01:25:50;;;;;;;22.60;20.30;;;18.70;99.90;;;;;;5048943;28;20471;-70
2023/06/21 01:28:36;;;;;;;22.60;20.63;;;18.70;99.90;;;;;;5049490;28;20442;-70
2023/06/21 01:31:07;;;;;;;24.60;22.00;;;18.70;99.90;;;;;;5049213;28;20836;-71
2023/06/21 01:33:36;;;;;;;21.10;19.17;;;18.70;99.90;;;;;;5048106;28;20440;-70
2023/06/21 01:36:04;;;;;;;22.23;20.23;;;18.80;99.90;;;;;;5049277;28;20495;-70
2023/06/21 01:38:33;;;;;;;22.50;20.37;;;18.70;99.90;;;;;;5050472;28;20439;-70
2023/06/21 01:41:01;;;;;;;26.10;23.70;;;18.70;99.90;;;;;;5053000;28;20448;-71
2023/06/21 01:43:30;;;;;;;27.93;25.53;;;18.60;99.90;;;;;;5051388;28;20477;-70
2023/06/21 01:45:59;;;;;;;24.13;21.93;;;18.60;99.90;;;;;;5053093;28;20439;-71
2023/06/21 01:48:30;;;;;;;25.70;23.43;;;18.50;99.90;;;;;;5052720;28;21001;-70
2023/06/21 01:50:59;;;;;;;23.67;21.50;;;18.50;99.90;;;;;;5052606;28;20454;-70
2023/06/21 01:53:27;;;;;;;25.03;22.50;;;18.40;99.90;;;;;;5051640;28;20448;-70
2023/06/21 01:55:57;;;;;;;26.53;22.20;;;18.50;99.90;;;;;;5052473;28;20531;-70
2023/06/21 01:58:25;;;;;;;22.27;20.00;;;18.50;99.90;;;;;;5052797;28;20464;-70
2023/06/21 02:00:55;;;;;;;23.43;20.93;;;18.40;99.90;;;;;;5052374;28;20527;-70
2023/06/21 02:03:25;;;;;;;23.57;21.27;;;18.40;99.90;;;;;;5051220;28;20997;-70
2023/06/21 02:05:55;;;;;;;26.10;23.57;;;18.50;99.90;;;;;;5052683;28;20828;-70
2023/06/21 02:08:24;;;;;;;25.77;21.57;;;18.50;99.90;;;;;;5052712;28;20790;-71
2023/06/21 02:10:52;;;;;;;25.93;23.17;;;18.40;99.90;;;;;;5052804;28;20519;-71
2023/06/21 02:13:20;;;;;;;25.20;22.70;;;18.30;99.90;;;;;;5051294;28;20460;-70
2023/06/21 02:15:48;;;;;;;23.80;21.57;;;18.20;99.90;;;;;;5052547;28;20441;-70
2023/06/21 02:18:18;;;;;;;26.40;23.70;;;18.20;99.90;;;;;;5052681;28;20538;-71
2023/06/21 02:20:47;;;;;;;26.20;23.60;;;18.20;99.90;;;;;;5052567;28;20440;-71
2023/06/21 02:23:16;;;;;;;26.20;23.70;;;18.10;99.90;;;;;;5050844;28;20487;-70
2023/06/21 02:25:44;;;;;;;27.93;25.17;;;18.20;99.90;;;;;;5043616;28;20861;-70
2023/06/21 02:28:12;;;;;;;27.47;24.73;;;18.10;99.90;;;;;;5032049;28;20441;-70
2023/06/21 02:30:40;;;;;;;30.37;26.30;;;18.20;99.90;;;;;;5031881;28;21345;-70
2023/06/21 02:33:08;;;;;;;28.10;25.30;;;18.30;99.90;;;;;;5031041;28;20465;-70
2023/06/21 02:35:36;;;;;;;30.63;26.47;;;18.20;99.90;;;;;;5032152;28;20820;-70
2023/06/21 02:38:04;;;;;;;28.33;25.53;;;18.30;99.90;;;;;;5032057;28;20541;-71
2023/06/21 02:40:34;;;;;;;31.30;27.70;;;18.20;99.90;;;;;;5032055;28;20535;-71
2023/06/21 02:43:02;;;;;;;29.80;27.00;;;18.20;99.90;;;;;;5030317;28;20469;-70
2023/06/21 02:45:30;;;;;;;26.17;23.80;;;18.20;99.90;;;;;;5032095;28;20528;-70
2023/06/21 02:47:57;;;;;;;22.77;20.33;;;18.30;99.90;;;;;;5031711;28;20453;-70
2023/06/21 02:50:26;;;;;;;22.97;20.73;;;18.30;99.90;;;;;;5031771;28;20452;-70
2023/06/21 02:52:54;;;;;;;24.17;21.87;;;18.30;99.90;;;;;;5030359;28;20547;-71
2023/06/21 02:55:22;;;;;;;25.07;22.73;;;18.30;99.90;;;;;;5031527;28;21056;-70
2023/06/21 02:57:52;;;;;;;24.17;21.60;;;18.30;99.90;;;;;;5031708;28;20477;-70
2023/06/21 03:00:28;;;;;;;22.70;20.50;;;18.20;99.90;;;;;;5031683;28;20445;-71
2023/06/21 03:02:59;;;;;;;24.67;22.23;;;18.20;99.90;;;;;;5030621;28;20464;-70
2023/06/21 03:05:28;;;;;;;24.73;21.63;;;18.20;99.90;;;;;;5031405;28;20474;-70
2023/06/21 03:07:57;;;;;;;25.73;23.20;;;18.20;99.90;;;;;;5031636;28;20484;-70
2023/06/21 03:10:25;;;;;;;23.70;21.47;;;18.20;99.90;;;;;;5032011;28;20490;-71
2023/06/21 03:12:55;;;;;;;23.90;21.40;;;18.10;99.90;;;;;;5031435;28;20459;-70
2023/06/21 03:15:23;;;;;;;26.10;23.47;;;18.20;99.90;;;;;;5051938;28;20510;-70
2023/06/21 03:17:51;;;;;;;25.70;22.47;;;18.30;99.90;;;;;;5051671;28;21129;-70
2023/06/21 03:20:19;;;;;;;27.23;24.30;;;18.30;99.90;;;;;;5051449;28;20500;-71
2023/06/21 03:22:48;;;;;;;27.60;23.67;;;18.40;99.90;;;;;;5050490;28;20970;-70
2023/06/21 03:25:16;;;;;;;26.33;22.10;;;18.40;99.90;;;;;;5051886;28;20511;-71
2023/06/21 03:27:44;;;;;;;24.80;22.40;;;18.50;99.90;;;;;;5051925;28;20550;-70
2023/06/21 03:30:14;;;;;;;23.73;21.40;;;18.60;99.90;;;;;;5051501;28;20539;-70
2023/06/21 03:32:46;;;;;;;25.53;23.30;;;18.60;99.90;;;;;;5049754;28;20479;-70
2023/06/21 03:35:15;;;;;;;23.67;21.47;;;18.80;99.90;;;;;;5050818;28;20849;-70
2023/06/21 03:37:43;;;;;;;23.53;21.47;;;18.70;99.90;;;;;;5050857;28;20452;-70
2023/06/21 03:40:13;;;;;;;23.70;21.40;;;18.70;99.90;;;;;;5050832;28;20490;-70
2023/06/21 03:42:42;;;;;;;22.40;20.50;;;18.80;99.90;;;;;;5049237;28;20503;-70
2023/06/21 03:45:11;;;;;;;21.47;19.57;;;18.90;99.90;;;;;;5050437;28;20479;-70
2023/06/21 03:47:42;;;;;;;24.90;19.47;;;19.00;99.90;;;;;;5050341;28;20450;-70
2023/06/21 03:50:11;;;;;;;19.80;17.67;;;19.00;99.90;;;;;;5050881;28;20432;-71
2023/06/21 03:52:40;;;;;;;18.80;16.40;;;18.90;99.90;;;;;;5032004;28;20453;-70
2023/06/21 03:55:09;;;;;;;18.60;16.83;;;19.00;99.90;;;;;;5030631;28;20499;-70
2023/06/21 03:57:38;;;;;;;20.43;18.30;;;19.10;99.90;;;;;;5030504;28;20437;-70
2023/06/21 04:00:08;;;;;;;18.10;16.47;;;19.10;99.90;;;;;;5030366;28;20449;-70
2023/06/21 04:02:36;;;;;;;17.00;15.30;;;19.00;99.90;;;;;;5032291;28;20487;-70
2023/06/21 04:05:09;;;;;;;20.27;18.17;;;18.80;99.90;;;;;;5050492;28;20482;-70
2023/06/21 04:07:38;;;;;;;19.63;17.70;;;18.70;99.90;;;;;;5050785;28;20447;-70
2023/06/21 04:10:08;;;;;;;22.53;20.40;;;18.60;99.90;;;;;;5050329;28;20452;-71
2023/06/21 04:12:37;;;;;;;18.50;16.70;;;18.60;99.90;;;;;;5049513;28;20472;-71
2023/06/21 04:15:06;;;;;;;18.70;16.77;;;18.50;99.90;;;;;;5050968;28;20438;-69
2023/06/21 04:17:35;;;;;;;19.80;18.00;;;18.60;99.90;;;;;;5050496;28;20444;-69
2023/06/21 04:20:10;;;;;;;19.73;17.53;;;18.60;99.90;;;;;;5050380;28;20920;-69
2023/06/21 04:22:40;;;;;;;18.90;17.03;;;18.60;99.90;;;;;;5048665;28;20467;-69
2023/06/21 04:25:09;;;;;;;21.30;19.17;;;18.70;99.90;;;;;;5050064;28;20476;-69
2023/06/21 04:27:39;;;;;;;19.70;17.90;;;18.60;99.90;;;;;;5049654;28;20448;-68
2023/06/21 04:30:10;;;;;;;25.30;22.20;;;18.70;99.90;;;;;;5045781;28;20446;-68
2023/06/21 04:32:44;;;;;;;22.37;19.97;;;18.70;99.90;;;;;;5050424;28;20543;-69
2023/06/21 04:35:15;;;;;;;25.87;22.23;;;18.80;99.90;;;;;;5050247;28;20501;-69
2023/06/21 04:37:44;;;;;;;26.47;21.03;;;18.80;99.90;;;;;;5047781;28;20443;-68
2023/06/21 04:40:15;;;;;;;20.67;18.77;;;18.80;99.90;;;;;;5049655;28;20444;-68
2023/06/21 04:43:01;;;;;;;19.30;17.50;;;18.80;99.90;;;;;;5048512;28;20464;-68
2023/06/21 04:45:31;;;;;;;21.23;18.27;;;18.90;99.90;;;;;;5049285;28;20480;-68
2023/06/21 04:47:59;;;;;;;19.00;17.00;;;19.00;99.90;;;;;;5049482;28;20444;-68
2023/06/21 04:50:29;;;;;;;17.43;15.83;;;19.00;99.90;;;;;;5049490;28;20444;-69
2023/06/21 04:52:59;;;;;;;21.70;18.73;;;19.00;99.90;;;;;;5047830;28;20997;-68
2023/06/21 04:55:28;;;;;;;17.07;15.67;;;19.10;99.90;;;;;;5049560;28;20428;-68
2023/06/21 04:57:58;;;;;;;19.60;17.70;;;19.10;99.90;;;;;;5049206;28;20448;-68
2023/06/21 05:00:27;;;;;;;18.27;16.53;;;19.30;99.90;;;;;;5049101;28;20531;-68
2023/06/21 05:02:56;;;;;;;19.40;17.60;;;19.30;99.90;;;;;;5048370;28;20464;-67
2023/06/21 05:05:24;;;;;;;17.70;15.90;;;19.50;99.90;;;;;;5049363;28;20559;-68
2023/06/21 05:07:54;;;;;;;18.60;16.70;;;19.50;99.90;;;;;;5049479;28;20542;-68
2023/06/21 05:10:22;;;;;;;21.40;19.60;;;19.60;99.90;;;;;;5049243;28;20956;-68
2023/06/21 05:12:50;;;;;;;22.40;20.30;;;19.70;99.90;;;;;;5048252;28;20495;-68
2023/06/21 05:15:18;;;;;;;23.50;21.30;;;19.80;99.90;;;;;;5053239;28;20444;-69
2023/06/21 05:17:46;;;;;;;20.03;18.23;;;19.90;99.90;;;;;;5053086;28;20443;-69
2023/06/21 05:20:14;;;;;;;20.20;18.20;;;20.00;99.90;;;;;;5053493;28;20440;-69
2023/06/21 05:22:43;;;;;;;20.00;17.23;;;20.00;99.90;;;;;;5052137;28;20474;-68
2023/06/21 05:25:12;;;;;;;19.33;17.43;;;20.10;99.90;;;;;;5053151;28;21046;-70
2023/06/21 05:27:40;;;;;;;19.10;17.23;;;20.00;99.90;;;;;;5053287;28;20488;-69
2023/06/21 05:30:09;;;;;;;17.93;16.43;;;20.00;99.90;;;;;;5053422;28;20502;-69
2023/06/21 05:32:37;;;;;;;15.80;14.60;;;20.00;99.90;;;;;;5052007;28;20606;-69
2023/06/21 05:35:06;;;;;;;17.30;14.77;;;20.00;99.90;;;;;;5052995;28;20444;-69
2023/06/21 05:37:34;;;;;;;17.33;15.80;;;20.10;99.90;;;;;;5052955;28;20911;-69
2023/06/21 05:40:02;;;;;;;16.17;14.77;;;20.10;99.90;;;;;;5050723;28;20440;-69
2023/06/21 05:42:32;;;;;;;22.17;17.67;;;20.20;99.90;;;;;;5032118;28;20464;-70
2023/06/21 05:45:00;;;;;;;19.33;16.53;;;20.30;99.90;;;;;;5032763;28;20479;-70
2023/06/21 05:47:28;;;;;;;16.80;14.93;;;20.20;99.90;;;;;;5032876;28;20448;-70
2023/06/21 05:49:56;;;;;;;15.37;14.17;;;20.30;99.90;;;;;;5032862;28;20543;-70
2023/06/21 05:52:24;;;;;;;18.43;16.70;;;20.30;99.90;;;;;;5030919;28;20460;-70
2023/06/21 05:54:52;;;;;;;19.27;17.37;;;20.40;99.90;;;;;;5032360;28;20453;-71
2023/06/21 05:57:21;;;;;;;20.10;18.10;;;20.50;99.90;;;;;;5032780;28;20487;-71
2023/06/21 05:59:50;;;;;;;16.80;15.20;;;20.60;99.90;;;;;;5033127;28;20433;-70
2023/06/21 06:02:18;;;;;;;17.50;15.80;;;20.70;99.90;;;;;;5032435;28;20485;-69
2023/06/21 06:04:46;;;;;;;16.93;15.43;;;20.80;99.90;;;;;;5032053;28;20433;-70
2023/06/21 06:07:15;;;;;;;16.30;14.77;;;21.00;99.90;;;;;;5049184;28;20476;-71
2023/06/21 06:09:43;;;;;;;16.50;15.10;;;21.00;99.90;;;;;;5060271;28;20443;-71
2023/06/21 06:12:11;;;;;;;16.90;15.43;;;21.10;99.90;;;;;;5038410;28;20469;-71
2023/06/21 06:14:39;;;;;;;15.63;14.27;;;21.30;99.90;;;;;;5055213;28;20481;-71
2023/06/21 06:17:08;;;;;;;15.50;13.97;;;21.40;99.90;;;;;;5051835;28;20865;-71
2023/06/21 06:19:36;;;;;;;15.23;14.03;;;21.60;99.90;;;;;;5061321;28;20447;-70
2023/06/21 06:22:05;;;;;;;14.07;12.77;;;21.90;99.90;;;;;;5046769;28;20546;-70
2023/06/21 06:24:33;;;;;;;15.17;13.77;;;22.10;99.90;;;;;;5049749;28;20435;-71
2023/06/21 06:27:01;;;;;;;14.87;13.63;;;22.30;99.90;;;;;;5039294;28;20563;-71
2023/06/21 06:29:30;;;;;;;13.50;12.20;;;22.40;99.90;;;;;;5047559;28;20543;-71
2023/06/21 06:31:58;;;;;;;13.27;12.17;;;22.40;99.90;;;;;;5036816;28;20465;-70
2023/06/21 06:34:28;;;;;;;14.23;13.03;;;22.50;99.90;;;;;;5037247;28;20437;-71
2023/06/21 06:36:56;;;;;;;13.53;12.27;;;22.50;99.90;;;;;;5038431;28;20440;-70
2023/06/21 06:39:41;;;;;;;14.87;13.50;;;22.60;99.90;;;;;;5042137;28;20434;-71
2023/06/21 06:42:10;;;;;;;14.40;13.00;;;22.80;99.90;;;;;;5037281;28;20472;-71
2023/06/21 06:44:38;;;;;;;24.57;18.97;;;22.80;99.90;;;;;;5040702;28;20479;-70
2023/06/21 06:47:07;;;;;;;11.47;10.20;;;22.90;99.90;;;;;;5046933;28;20489;-71
2023/06/21 06:49:36;;;;;;;11.37;10.30;;;22.90;99.90;;;;;;5042991;28;20437;-70
2023/06/21 06:52:05;;;;;;;11.00;9.90;;;22.90;99.90;;;;;;5047423;28;21040;-71
2023/06/21 06:54:33;;;;;;;11.40;9.57;;;23.00;99.90;;;;;;5054457;28;20463;-71
2023/06/21 06:57:02;;;;;;;10.90;9.80;;;22.90;99.90;;;;;;5051311;28;20448;-71
2023/06/21 06:59:30;;;;;;;11.00;9.93;;;22.90;99.90;;;;;;5051829;28;20536;-71
2023/06/21 07:01:58;;;;;;;11.77;10.30;;;22.90;99.90;;;;;;5051332;28;20835;-71
2023/06/21 07:04:28;;;;;;;11.43;10.33;;;22.90;99.90;;;;;;5050554;28;20444;-71
2023/06/21 07:07:01;;;;;;;11.60;10.40;;;23.20;99.90;;;;;;5051329;28;20480;-70
2023/06/21 07:09:29;;;;;;;10.73;9.80;;;23.40;99.90;;;;;;5051327;28;20430;-70
2023/06/21 07:11:59;;;;;;;12.23;11.00;;;23.60;99.90;;;;;;5051227;28;20463;-71
2023/06/21 07:14:27;;;;;;;12.23;11.03;;;23.70;99.90;;;;;;5050350;28;20997;-71
2023/06/21 07:16:55;;;;;;;13.27;12.00;;;23.50;99.90;;;;;;5051317;28;20825;-71
2023/06/21 07:19:23;;;;;;;14.20;12.87;;;23.50;99.90;;;;;;5051120;28;20479;-71
2023/06/21 07:21:51;;;;;;;13.40;12.03;;;23.60;99.90;;;;;;5050957;28;20555;-70
2023/06/21 07:24:21;;;;;;;13.50;11.70;;;23.50;99.90;;;;;;5049578;28;20444;-69
2023/06/21 07:26:49;;;;;;;14.17;11.20;;;23.60;99.90;;;;;;5050806;28;20511;-70
2023/06/21 07:29:17;;;;;;;13.23;11.90;;;23.70;99.90;;;;;;5050841;28;20807;-70
2023/06/21 07:31:45;;;;;;;13.17;11.97;;;23.80;99.90;;;;;;5050756;28;20464;-71
2023/06/21 07:34:13;;;;;;;15.47;13.33;;;24.00;99.90;;;;;;5049659;28;20458;-70
2023/06/21 07:36:42;;;;;;;13.17;11.70;;;24.10;99.90;;;;;;5049733;28;20480;-70
2023/06/21 07:39:14;;;;;;;12.50;11.30;;;24.20;99.90;;;;;;5050721;28;20498;-69
2023/06/21 07:41:54;;;;;;;14.27;13.00;;;24.50;99.90;;;;;;5050822;28;20463;-70
2023/06/21 07:44:40;;;;;;;12.53;11.23;;;24.70;99.90;;;;;;5049767;28;20444;-70
2023/06/21 07:47:08;;;;;;;12.60;11.30;;;24.70;99.80;;;;;;5050263;28;20482;-70
2023/06/21 07:49:39;;;;;;;12.20;10.90;;;24.70;99.90;;;;;;5050567;28;20466;-72
2023/06/21 07:52:11;;;;;;;11.80;9.20;;;24.70;99.90;;;;;;5050211;28;20464;-71
2023/06/21 07:54:42;;;;;;;10.87;7.97;;;24.60;99.60;;;;;;5049601;28;21009;-71
2023/06/21 07:57:12;;;;;;;11.47;7.60;;;24.60;97.70;;;;;;5050179;28;20443;-71
2023/06/21 07:59:40;;;;;;;7.57;6.87;;;24.40;97.50;;;;;;5050296;28;20456;-71
2023/06/21 08:02:09;;;;;;;8.60;7.80;;;24.20;97.80;;;;;;5049043;28;20469;-71
2023/06/21 08:04:37;;;;;;;8.13;7.43;;;24.10;98.10;;;;;;5049813;28;20574;-71
2023/06/21 08:07:06;;;;;;;7.63;6.83;;;24.20;98.80;;;;;;5050214;28;20472;-71
2023/06/21 08:09:34;;;;;;;8.17;5.90;;;24.60;98.90;;;;;;5050533;28;20798;-71
2023/06/21 08:12:02;;;;;;;7.20;6.50;;;25.00;94.60;;;;;;5049706;28;20534;-70
2023/06/21 08:14:31;;;;;;;8.90;5.60;;;25.30;94.70;;;;;;5049678;28;20448;-69
2023/06/21 08:16:59;;;;;;;5.80;5.30;;;25.60;91.60;;;;;;5050269;28;20531;-70
2023/06/21 08:19:27;;;;;;;5.60;5.10;;;25.70;92.60;;;;;;5050713;28;20440;-70
2023/06/21 08:21:55;;;;;;;6.57;6.00;;;25.60;91.50;;;;;;5050480;28;20471;-70
2023/06/21 08:24:27;;;;;;;5.33;4.83;;;25.50;92.40;;;;;;5048909;28;20448;-70
2023/06/21 08:26:55;;;;;;;8.17;5.03;;;25.30;92.20;;;;;;5050398;28;20541;-70
2023/06/21 08:29:23;;;;;;;5.90;5.33;;;25.10;91.40;;;;;;5050153;28;20450;-69
2023/06/21 08:31:52;;;;;;;6.13;5.60;;;24.90;92.30;;;;;;5050306;28;20468;-69
2023/06/21 08:34:20;;;;;;;9.83;5.00;;;24.60;92.10;;;;;;5049158;28;20518;-69
2023/06/21 08:36:48;;;;;;;4.87;4.43;;;24.40;92.20;;;;;;5050779;28;20436;-70
2023/06/21 08:39:16;;;;;;;4.47;4.00;;;24.30;93.70;;;;;;5050015;28;20940;-69
2023/06/21 08:41:44;;;;;;;4.90;4.40;;;24.20;93.70;;;;;;5050075;28;20505;-70
2023/06/21 08:44:13;;;;;;;6.00;5.03;;;24.10;94.10;;;;;;5048466;28;20436;-70
2023/06/21 08:46:43;;;;;;;4.10;3.70;;;24.00;93.60;;;;;;5049726;28;20580;-70
2023/06/21 08:49:17;;;;;;;4.53;4.13;;;24.00;94.10;;;;;;5049624;28;20452;-69
2023/06/21 08:51:47;;;;;;;6.43;4.10;;;23.90;94.10;;;;;;5049753;28;20462;-69
2023/06/21 08:54:19;;;;;;;6.90;3.80;;;23.80;95.20;;;;;;5048492;28;20475;-69
2023/06/21 08:56:52;;;;;;;5.50;4.17;;;23.80;94.60;;;;;;5049762;28;20482;-69
2023/06/21 08:59:25;;;;;;;6.53;5.07;;;23.70;95.30;;;;;;5049604;28;20438;-70
2023/06/21 09:01:59;;;;;;;5.17;4.67;;;23.60;95.40;;;;;;5049652;28;20529;-69
2023/06/21 09:04:38;;;;;;;4.63;4.23;;;23.50;96.00;;;;;;5048973;28;20802;-69
2023/06/21 09:07:07;;;;;;;5.63;4.70;;;23.40;97.10;;;;;;5049788;28;20475;-69
2023/06/21 09:09:38;;;;;;;4.90;4.50;;;23.30;97.50;;;;;;5049710;28;20440;-70
2023/06/21 09:12:08;;;;;;;5.10;4.60;;;23.10;98.80;;;;;;5049162;28;20502;-69
2023/06/21 09:14:36;;;;;;;6.13;4.90;;;23.00;99.60;;;;;;5048780;28;20436;-70
2023/06/21 09:17:05;;;;;;;5.43;4.63;;;22.70;99.90;;;;;;5049735;28;20499;-70
2023/06/21 09:19:35;;;;;;;5.93;5.40;;;22.50;99.90;;;;;;5049896;28;20537;-71
2023/06/21 09:22:06;;;;;;;7.03;4.80;;;22.30;99.90;;;;;;5049329;28;21052;-71
2023/06/21 09:24:34;;;;;;;6.43;5.83;;;22.00;99.90;;;;;;5048723;28;20966;-71
2023/06/21 09:27:02;;;;;;;6.70;5.70;;;21.70;99.90;;;;;;5049373;28;20507;-74
2023/06/21 09:29:30;;;;;;;5.70;5.03;;;21.50;99.90;;;;;;5049872;28;20551;-71
2023/06/21 09:31:59;;;;;;;16.50;9.27;;;21.30;99.90;;;;;;5049782;28;20525;-71
2023/06/21 09:34:27;;;;;;;11.90;7.20;;;21.10;99.90;;;;;;5049083;28;20493;-71
2023/06/21 09:36:56;;;;;;;9.47;6.20;;;20.90;99.90;;;;;;5049795;28;20447;-71
2023/06/21 09:39:25;;;;;;;8.37;7.40;;;20.70;99.90;;;;;;5049703;28;20444;-71
2023/06/21 09:41:53;;;;;;;8.73;6.90;;;20.60;99.90;;;;;;5049767;28;20559;-71
2023/06/21 09:44:21;;;;;;;12.67;7.37;;;20.50;99.90;;;;;;5048542;28;20437;-70
2023/06/21 09:46:49;;;;;;;16.73;9.93;;;20.50;99.90;;;;;;5049714;28;20535;-69
2023/06/21 09:49:17;;;;;;;11.60;8.27;;;20.40;99.90;;;;;;5049846;28;20550;-69
2023/06/21 09:51:47;;;;;;;12.47;8.47;;;20.30;99.90;;;;;;5049850;28;20536;-69
2023/06/21 09:54:16;;;;;;;7.90;7.17;;;20.20;99.90;;;;;;5048482;28;20502;-70
2023/06/21 09:56:45;;;;;;;11.10;7.87;;;20.20;99.90;;;;;;5049623;28;20962;-70
2023/06/21 09:59:17;;;;;;;10.67;8.97;;;20.10;99.90;;;;;;5050360;28;20447;-70
2023/06/21 10:01:47;;;;;;;12.47;9.47;;;20.10;99.90;;;;;;5052798;28;20463;-70
2023/06/21 10:04:17;;;;;;;9.50;8.60;;;20.10;99.90;;;;;;5051403;28;20458;-70
2023/06/21 10:06:50;;;;;;;14.20;8.80;;;20.20;99.90;;;;;;5052353;28;20448;-70
2023/06/21 10:09:20;;;;;;;23.00;11.37;;;20.20;99.90;;;;;;5052459;28;20535;-70
2023/06/21 10:11:49;;;;;;;11.33;10.13;;;20.20;99.90;;;;;;5052483;28;20456;-71
2023/06/21 10:14:20;;;;;;;9.80;8.73;;;20.30;99.90;;;;;;5051281;28;20448;-71
2023/06/21 10:16:51;;;;;;;10.90;8.70;;;20.30;99.90;;;;;;5052720;28;20942;-70
2023/06/21 10:19:22;;;;;;;11.27;10.00;;;20.30;99.90;;;;;;5052387;28;20436;-70
2023/06/21 10:21:59;;;;;;;12.50;11.33;;;20.30;99.90;;;;;;5050810;28;20476;-70
2023/06/21 10:24:33;;;;;;;15.80;10.27;;;20.20;99.90;;;;;;5051638;28;20447;-70
2023/06/21 10:27:02;;;;;;;13.57;10.50;;;20.20;99.90;;;;;;5052171;28;20444;-70
2023/06/21 10:29:32;;;;;;;17.17;11.30;;;20.20;99.90;;;;;;5052133;28;20534;-71
2023/06/21 10:32:01;;;;;;;12.63;10.00;;;20.20;99.90;;;;;;5051969;28;20483;-70
2023/06/21 10:34:38;;;;;;;9.77;8.80;;;20.30;99.90;;;;;;5051350;28;20898;-70
2023/06/21 10:37:13;;;;;;;9.80;8.77;;;20.30;99.90;;;;;;5052050;28;20475;-70
2023/06/21 10:39:45;;;;;;;12.73;9.50;;;20.30;99.90;;;;;;5052396;28;20454;-70
2023/06/21 10:42:20;;;;;;;26.00;11.93;;;20.40;99.90;;;;;;5051826;28;20523;-70
2023/06/21 10:44:49;;;;;;;11.43;9.17;;;20.50;99.90;;;;;;5051810;28;20820;-70
2023/06/21 10:47:19;;;;;;;14.13;10.40;;;20.60;99.90;;;;;;5052140;28;20442;-70
2023/06/21 10:49:49;;;;;;;11.70;10.50;;;20.80;99.90;;;;;;5052027;28;20443;-72
2023/06/21 10:52:17;;;;;;;13.63;9.60;;;21.10;99.90;;;;;;5051387;28;20514;-70
2023/06/21 10:54:49;;;;;;;10.90;9.60;;;21.40;99.90;;;;;;5050804;28;20475;-70
2023/06/21 10:57:18;;;;;;;11.33;9.30;;;21.70;99.90;;;;;;5051693;28;20502;-71
2023/06/21 10:59:47;;;;;;;9.23;8.30;;;22.10;99.90;;;;;;5051996;28;20440;-70
2023/06/21 11:02:15;;;;;;;11.27;8.97;;;22.40;99.90;;;;;;5051415;28;20546;-70
2023/06/21 11:05:17;;;;;;;8.23;7.40;;;22.50;99.90;;;;;;5050994;28;20795;-71
2023/06/21 11:07:50;;;;;;;9.37;7.87;;;22.60;99.90;;;;;;5051653;28;20440;-70
2023/06/21 11:10:22;;;;;;;9.20;8.30;;;22.70;99.90;;;;;;5050832;28;20536;-70
2023/06/21 11:12:55;;;;;;;7.60;6.90;;;22.90;99.90;;;;;;5050147;28;20456;-70
2023/06/21 11:15:26;;;;;;;7.87;7.07;;;23.20;99.90;;;;;;5051291;28;20436;-71
2023/06/21 11:18:01;;;;;;;9.57;6.30;;;23.50;99.90;;;;;;5051353;28;20494;-69
2023/06/21 11:20:32;;;;;;;8.00;6.57;;;24.00;99.90;;;;;;5051513;28;20494;-70
2023/06/21 11:23:02;;;;;;;6.37;5.77;;;24.40;99.90;;;;;;5050009;28;20456;-70
2023/06/21 11:25:31;;;;;;;8.27;7.07;;;25.00;99.90;;;;;;5051048;28;20436;-70
2023/06/21 11:28:26;;;;;;;6.03;5.43;;;25.50;99.90;;;;;;5051006;28;20563;-70
2023/06/21 11:31:06;;;;;;;11.47;6.27;;;25.70;99.90;;;;;;5051021;28;20641;-70
2023/06/21 11:33:46;;;;;;;10.40;7.63;;;26.00;99.90;;;;;;5049688;28;20459;-70
2023/06/21 11:36:16;;;;;;;8.20;7.50;;;26.30;99.90;;;;;;5050860;28;21037;-70
2023/06/21 11:38:52;;;;;;;7.17;5.83;;;26.50;99.90;;;;;;5050716;28;20464;-70
2023/06/21 11:41:54;;;;;;;6.87;6.23;;;26.80;99.90;;;;;;5050724;28;20479;-70
2023/06/21 11:44:26;;;;;;;6.97;5.47;;;27.30;99.90;;;;;;5032194;28;20448;-70
2023/06/21 11:47:17;;;;;;;6.87;6.27;;;28.10;99.90;;;;;;5029997;28;20853;-70
2023/06/21 11:49:56;;;;;;;7.57;6.97;;;28.20;97.40;;;;;;5030521;28;20546;-70
2023/06/21 11:52:30;;;;;;;8.30;6.97;;;28.80;96.70;;;;;;5029595;28;20453;-70
2023/06/21 11:55:00;;;;;;;9.80;7.67;;;28.80;92.00;;;;;;5030477;28;20452;-73
2023/06/21 11:57:28;;;;;;;7.67;6.97;;;28.20;92.90;;;;;;5030664;28;20441;-70
2023/06/21 11:59:57;;;;;;;7.13;6.43;;;28.00;97.30;;;;;;5030711;28;20528;-70
2023/06/21 12:02:25;;;;;;;7.77;7.07;;;28.40;97.30;;;;;;5029306;28;20465;-70
2023/06/21 12:04:55;;;;;;;8.33;6.80;;;29.00;91.70;;;;;;5030472;28;20452;-70
2023/06/21 12:07:23;;;;;;;9.40;8.37;;;29.10;93.20;;;;;;5030625;28;20499;-70
2023/06/21 12:09:51;;;;;;;9.40;8.50;;;29.40;86.30;;;;;;5030673;28;21106;-70
2023/06/21 12:12:25;;;;;;;10.23;9.43;;;28.90;86.90;;;;;;5054090;28;20520;-69
2023/06/21 12:14:58;;;;;;;10.87;9.87;;;28.20;91.00;;;;;;5054516;28;21041;-69
2023/06/21 12:17:26;;;;;;;10.50;9.10;;;27.70;90.30;;;;;;5037252;28;20568;-69
2023/06/21 12:19:59;;;;;;;9.83;8.93;;;27.40;92.30;;;;;;5055935;28;20420;-68
2023/06/21 12:22:27;;;;;;;10.07;9.30;;;27.70;91.50;;;;;;5031637;28;20875;-69
2023/06/21 12:24:55;;;;;;;10.50;9.40;;;28.50;89.60;;;;;;5037229;28;20437;-69
2023/06/21 12:27:23;;;;;;;12.53;10.90;;;28.20;90.30;;;;;;5046188;28;20444;-69
2023/06/21 12:29:51;;;;;;;12.67;9.67;;;27.90;87.40;;;;;;5034331;28;21252;-69
2023/06/21 12:32:21;;;;;;;10.77;9.50;;;27.50;90.00;;;;;;5039246;28;20523;-68
2023/06/21 12:34:50;;;;;;;9.63;8.70;;;27.00;94.10;;;;;;5040431;28;20443;-69
2023/06/21 12:37:21;;;;;;;12.87;8.70;;;27.10;95.90;;;;;;5041189;28;21012;-70
2023/06/21 12:39:51;;;;;;;12.00;10.80;;;27.20;95.40;;;;;;5038589;28;20429;-70
2023/06/21 12:42:20;;;;;;;10.07;9.27;;;27.50;90.80;;;;;;5038289;28;20494;-69
2023/06/21 12:44:49;;;;;;;11.20;9.70;;;28.00;93.70;;;;;;5037925;28;20479;-68
2023/06/21 12:47:17;;;;;;;9.73;8.70;;;28.70;83.40;;;;;;5039152;28;20444;-69